sensor_id;sensor_type;location;lat;lon;timestamp;pressure;altitude;pressure_sealevel;temperature;humidity
56944;BME280;42848;42.524;12.052;2022-08-11T00:00:56;96779.38;;;22.56;85.04
56944;BME280;42848;42.524;12.052;2022-08-11T00:03:22;96774.66;;;22.21;87.60
56944;BME280;42848;42.524;12.052;2022-08-11T00:05:53;96776.63;;;22.10;88.74
56944;BME280;42848;42.524;12.052;2022-08-11T00:08:25;96769.06;;;21.93;89.94
56944;BME280;42848;42.524;12.052;2022-08-11T00:10:56;96773.44;;;21.86;90.93
56944;BME280;42848;42.524;12.052;2022-08-11T00:13:41;96763.56;;;21.89;90.70
56944;BME280;42848;42.524;12.052;2022-08-11T00:16:16;96761.16;;;21.84;90.83
56944;BME280;42848;42.524;12.052;2022-08-11T00:18:44;96760.41;;;21.87;90.49
56944;BME280;42848;42.524;12.052;2022-08-11T00:21:11;96761.16;;;21.84;90.64
56944;BME280;42848;42.524;12.052;2022-08-11T00:23:43;96759.59;;;21.86;90.75
56944;BME280;42848;42.524;12.052;2022-08-11T00:26:11;96756.44;;;21.77;91.37
56944;BME280;42848;42.524;12.052;2022-08-11T00:28:38;96761.19;;;21.88;90.79
56944;BME280;42848;42.524;12.052;2022-08-11T00:31:10;96761.53;;;21.72;91.88
56944;BME280;42848;42.524;12.052;2022-08-11T00:33:38;96766.69;;;21.80;90.90
56944;BME280;42848;42.524;12.052;2022-08-11T00:36:07;96760.38;;;21.76;91.10
56944;BME280;42848;42.524;12.052;2022-08-11T00:38:37;96762.72;;;21.67;91.88
56944;BME280;42848;42.524;12.052;2022-08-11T00:41:08;96746.91;;;21.64;92.35
56944;BME280;42848;42.524;12.052;2022-08-11T00:44:03;96747.69;;;21.57;92.35
56944;BME280;42848;42.524;12.052;2022-08-11T00:49:12;96757.97;;;21.61;91.92
56944;BME280;42848;42.524;12.052;2022-08-11T00:51:51;96765.06;;;21.65;92.01
56944;BME280;42848;42.524;12.052;2022-08-11T00:54:26;96756.75;;;21.44;93.25
56944;BME280;42848;42.524;12.052;2022-08-11T01:00:03;96754.41;;;21.53;92.20
56944;BME280;42848;42.524;12.052;2022-08-11T01:02:44;96753.56;;;21.35;94.31
56944;BME280;42848;42.524;12.052;2022-08-11T01:05:44;96746.00;;;21.24;94.93
56944;BME280;42848;42.524;12.052;2022-08-11T01:08:45;96746.84;;;21.36;93.30
56944;BME280;42848;42.524;12.052;2022-08-11T01:14:33;96744.44;;;21.27;94.48
56944;BME280;42848;42.524;12.052;2022-08-11T01:25:57;96749.19;;;21.30;93.47
56944;BME280;42848;42.524;12.052;2022-08-11T01:28:59;96749.13;;;21.19;94.54
56944;BME280;42848;42.524;12.052;2022-08-11T01:35:04;96750.72;;;21.24;94.87
56944;BME280;42848;42.524;12.052;2022-08-11T01:46:29;96737.66;;;21.10;96.64
56944;BME280;42848;42.524;12.052;2022-08-11T01:54:34;96739.66;;;21.20;95.72
56944;BME280;42848;42.524;12.052;2022-08-11T02:00:14;96736.41;;;21.00;97.31
56944;BME280;42848;42.524;12.052;2022-08-11T02:02:51;96730.16;;;21.07;96.87
56944;BME280;42848;42.524;12.052;2022-08-11T02:10:47;96725.38;;;21.00;97.04
56944;BME280;42848;42.524;12.052;2022-08-11T02:14:06;96719.47;;;20.95;98.41
56944;BME280;42848;42.524;12.052;2022-08-11T02:17:08;96722.22;;;20.95;98.39
56944;BME280;42848;42.524;12.052;2022-08-11T02:22:45;96711.50;;;20.83;100.00
56944;BME280;42848;42.524;12.052;2022-08-11T02:34:27;96710.34;;;20.87;100.00
56944;BME280;42848;42.524;12.052;2022-08-11T02:42:29;96697.72;;;20.83;100.00
56944;BME280;42848;42.524;12.052;2022-08-11T02:45:11;96708.78;;;20.90;100.00
56944;BME280;42848;42.524;12.052;2022-08-11T02:48:15;96710.31;;;20.84;100.00
56944;BME280;42848;42.524;12.052;2022-08-11T02:54:01;96707.56;;;20.80;100.00
56944;BME280;42848;42.524;12.052;2022-08-11T02:57:01;96714.19;;;20.68;100.00
56944;BME280;42848;42.524;12.052;2022-08-11T02:59:52;96716.56;;;20.73;100.00
56944;BME280;42848;42.524;12.052;2022-08-11T03:07:30;96705.94;;;20.72;100.00
56944;BME280;42848;42.524;12.052;2022-08-11T03:10:12;96709.44;;;20.65;100.00
56944;BME280;42848;42.524;12.052;2022-08-11T03:12:50;96704.31;;;20.60;100.00
56944;BME280;42848;42.524;12.052;2022-08-11T03:15:48;96702.72;;;20.59;100.00
56944;BME280;42848;42.524;12.052;2022-08-11T03:21:38;96696.06;;;20.67;100.00
56944;BME280;42848;42.524;12.052;2022-08-11T03:24:14;96691.31;;;20.61;100.00
56944;BME280;42848;42.524;12.052;2022-08-11T03:27:11;96703.13;;;20.58;100.00
56944;BME280;42848;42.524;12.052;2022-08-11T03:30:02;96694.78;;;20.51;100.00
56944;BME280;42848;42.524;12.052;2022-08-11T03:32:36;96697.59;;;20.61;100.00
56944;BME280;42848;42.524;12.052;2022-08-11T03:35:08;96696.78;;;20.57;100.00
56944;BME280;42848;42.524;12.052;2022-08-11T03:37:56;96687.75;;;20.60;100.00
56944;BME280;42848;42.524;12.052;2022-08-11T03:55:54;96703.91;;;20.58;100.00
56944;BME280;42848;42.524;12.052;2022-08-11T04:17:49;96699.09;;;20.44;100.00
56944;BME280;42848;42.524;12.052;2022-08-11T04:24:01;96691.94;;;20.40;100.00
56944;BME280;42848;42.524;12.052;2022-08-11T04:27:00;96699.38;;;20.36;100.00
56944;BME280;42848;42.524;12.052;2022-08-11T04:49:57;96712.56;;;20.60;100.00
56944;BME280;42848;42.524;12.052;2022-08-11T04:56:22;96721.25;;;20.59;100.00
56944;BME280;42848;42.524;12.052;2022-08-11T04:59:39;96712.56;;;20.60;100.00
56944;BME280;42848;42.524;12.052;2022-08-11T05:02:53;96716.53;;;20.63;100.00
56944;BME280;42848;42.524;12.052;2022-08-11T05:13:46;96726.13;;;20.87;100.00
56944;BME280;42848;42.524;12.052;2022-08-11T05:16:35;96729.28;;;20.89;100.00
56944;BME280;42848;42.524;12.052;2022-08-11T05:19:24;96727.31;;;20.86;100.00
56944;BME280;42848;42.524;12.052;2022-08-11T05:22:11;96728.50;;;20.92;100.00
56944;BME280;42848;42.524;12.052;2022-08-11T05:25:16;96732.81;;;20.89;100.00
56944;BME280;42848;42.524;12.052;2022-08-11T05:28:11;96739.56;;;20.95;100.00
56944;BME280;42848;42.524;12.052;2022-08-11T05:31:13;96737.56;;;20.89;100.00
56944;BME280;42848;42.524;12.052;2022-08-11T05:34:09;96741.16;;;20.96;100.00
56944;BME280;42848;42.524;12.052;2022-08-11T05:39:26;96744.75;;;21.04;100.00
56944;BME280;42848;42.524;12.052;2022-08-11T05:42:11;96749.06;;;21.05;100.00
56944;BME280;42848;42.524;12.052;2022-08-11T05:45:03;96747.91;;;21.06;100.00
56944;BME280;42848;42.524;12.052;2022-08-11T05:47:53;96749.06;;;21.05;100.00
56944;BME280;42848;42.524;12.052;2022-08-11T05:50:38;96746.72;;;21.07;100.00
56944;BME280;42848;42.524;12.052;2022-08-11T05:53:24;96740.41;;;21.10;100.00
56944;BME280;42848;42.524;12.052;2022-08-11T05:56:08;96738.81;;;21.06;100.00
56944;BME280;42848;42.524;12.052;2022-08-11T05:58:50;96744.78;;;21.15;100.00
56944;BME280;42848;42.524;12.052;2022-08-11T06:01:23;96731.00;;;21.22;100.00
56944;BME280;42848;42.524;12.052;2022-08-11T06:03:56;96741.66;;;21.23;100.00
56944;BME280;42848;42.524;12.052;2022-08-11T06:06:51;96735.81;;;21.32;100.00
56944;BME280;42848;42.524;12.052;2022-08-11T06:09:23;96736.56;;;21.29;100.00
56944;BME280;42848;42.524;12.052;2022-08-11T06:11:50;96742.84;;;21.26;100.00
56944;BME280;42848;42.524;12.052;2022-08-11T06:14:17;96741.31;;;21.36;100.00
56944;BME280;42848;42.524;12.052;2022-08-11T06:16:47;96739.78;;;21.42;100.00
56944;BME280;42848;42.524;12.052;2022-08-11T06:19:15;96742.13;;;21.47;100.00
56944;BME280;42848;42.524;12.052;2022-08-11T06:21:45;96748.47;;;21.51;100.00
56944;BME280;42848;42.524;12.052;2022-08-11T06:24:15;96740.59;;;21.56;100.00
56944;BME280;42848;42.524;12.052;2022-08-11T06:26:47;96744.56;;;21.63;100.00
56944;BME280;42848;42.524;12.052;2022-08-11T06:29:13;96745.34;;;21.74;100.00
56944;BME280;42848;42.524;12.052;2022-08-11T06:31:55;96748.94;;;21.81;100.00
56944;BME280;42848;42.524;12.052;2022-08-11T06:39:49;96752.88;;;21.84;100.00
56944;BME280;42848;42.524;12.052;2022-08-11T06:42:34;96751.69;;;21.81;100.00
56944;BME280;42848;42.524;12.052;2022-08-11T06:46:00;96755.25;;;21.93;100.00
56944;BME280;42848;42.524;12.052;2022-08-11T06:48:01;96754.09;;;22.01;100.00
56944;BME280;42848;42.524;12.052;2022-08-11T06:50:28;96740.66;;;22.06;100.00
56944;BME280;42848;42.524;12.052;2022-08-11T06:53:16;96758.06;;;22.10;100.00
56944;BME280;42848;42.524;12.052;2022-08-11T06:55:44;96754.13;;;22.08;100.00
56944;BME280;42848;42.524;12.052;2022-08-11T06:58:32;96751.75;;;22.10;100.00
56944;BME280;42848;42.524;12.052;2022-08-11T07:01:42;96763.63;;;22.25;100.00
56944;BME280;42848;42.524;12.052;2022-08-11T07:04:16;96757.28;;;22.28;100.00
56944;BME280;42848;42.524;12.052;2022-08-11T07:07:10;96750.94;;;22.31;100.00
56944;BME280;42848;42.524;12.052;2022-08-11T07:10:42;96755.31;;;22.32;100.00
56944;BME280;42848;42.524;12.052;2022-08-11T07:13:21;96743.06;;;22.29;100.00
56944;BME280;42848;42.524;12.052;2022-08-11T07:16:06;96761.63;;;22.25;100.00
56944;BME280;42848;42.524;12.052;2022-08-11T07:18:34;96756.50;;;22.27;100.00
56944;BME280;42848;42.524;12.052;2022-08-11T07:21:33;96749.38;;;22.26;100.00
56944;BME280;42848;42.524;12.052;2022-08-11T07:24:31;96739.09;;;22.37;100.00
56944;BME280;42848;42.524;12.052;2022-08-11T07:27:19;96754.13;;;22.43;100.00
56944;BME280;42848;42.524;12.052;2022-08-11T07:30:08;96749.78;;;22.42;100.00
56944;BME280;42848;42.524;12.052;2022-08-11T07:32:44;96758.88;;;22.43;100.00
56944;BME280;42848;42.524;12.052;2022-08-11T07:35:15;96748.59;;;22.51;98.57
56944;BME280;42848;42.524;12.052;2022-08-11T07:37:54;96755.28;;;22.64;98.07
56944;BME280;42848;42.524;12.052;2022-08-11T07:40:22;96747.34;;;22.66;96.73
56944;BME280;42848;42.524;12.052;2022-08-11T07:42:49;96755.25;;;22.78;97.24
56944;BME280;42848;42.524;12.052;2022-08-11T07:45:17;96752.88;;;22.73;97.12
56944;BME280;42848;42.524;12.052;2022-08-11T07:48:02;96748.53;;;22.86;96.45
56944;BME280;42848;42.524;12.052;2022-08-11T07:50:48;96748.53;;;22.86;95.42
56944;BME280;42848;42.524;12.052;2022-08-11T07:53:33;96754.09;;;22.86;95.19
56944;BME280;42848;42.524;12.052;2022-08-11T07:56:03;96752.84;;;23.02;94.69
56944;BME280;42848;42.524;12.052;2022-08-11T07:58:34;96751.69;;;22.95;92.88
56944;BME280;42848;42.524;12.052;2022-08-11T08:01:24;96754.78;;;23.12;94.20
56944;BME280;42848;42.524;12.052;2022-08-11T08:04:12;96746.09;;;23.10;92.27
56944;BME280;42848;42.524;12.052;2022-08-11T08:06:57;96745.22;;;23.27;91.92
56944;BME280;42848;42.524;12.052;2022-08-11T08:09:42;96756.28;;;23.34;90.25
56944;BME280;42848;42.524;12.052;2022-08-11T08:12:28;96744.34;;;23.44;90.15
56944;BME280;42848;42.524;12.052;2022-08-11T08:15:14;96752.63;;;23.48;87.75
56944;BME280;42848;42.524;12.052;2022-08-11T08:18:02;96744.31;;;23.48;87.86
56944;BME280;42848;42.524;12.052;2022-08-11T08:20:36;96754.13;;;23.70;87.46
56944;BME280;42848;42.524;12.052;2022-08-11T08:23:03;96745.06;;;23.63;84.88
56944;BME280;42848;42.524;12.052;2022-08-11T08:25:35;96740.97;;;23.85;86.92
56944;BME280;42848;42.524;12.052;2022-08-11T08:28:08;96746.47;;;23.96;83.65
56944;BME280;42848;42.524;12.052;2022-08-11T08:30:36;96757.50;;;23.99;82.69
56944;BME280;42848;42.524;12.052;2022-08-11T08:33:27;96751.16;;;24.02;82.83
56944;BME280;42848;42.524;12.052;2022-08-11T08:35:55;96749.16;;;24.06;80.47
56944;BME280;42848;42.524;12.052;2022-08-11T08:38:55;96742.69;;;24.24;82.25
56944;BME280;42848;42.524;12.052;2022-08-11T08:41:24;96747.75;;;24.36;81.22
56944;BME280;42848;42.524;12.052;2022-08-11T08:43:55;96750.88;;;24.42;81.21
56944;BME280;42848;42.524;12.052;2022-08-11T08:46:26;96741.38;;;24.39;80.44
56944;BME280;42848;42.524;12.052;2022-08-11T08:48:56;96743.56;;;24.58;79.70
56944;BME280;42848;42.524;12.052;2022-08-11T08:51:25;96747.91;;;24.59;80.27
56944;BME280;42848;42.524;12.052;2022-08-11T08:54:06;96742.66;;;24.72;78.35
56944;BME280;42848;42.524;12.052;2022-08-11T08:56:32;96746.22;;;24.73;77.11
56944;BME280;42848;42.524;12.052;2022-08-11T08:59:01;96745.84;;;24.67;76.95
56944;BME280;42848;42.524;12.052;2022-08-11T09:01:31;96734.19;;;24.83;76.56
56944;BME280;42848;42.524;12.052;2022-08-11T09:03:59;96733.75;;;24.88;74.92
56944;BME280;42848;42.524;12.052;2022-08-11T09:06:25;96729.63;;;25.03;74.09
56944;BME280;42848;42.524;12.052;2022-08-11T09:08:54;96736.00;;;25.00;75.01
56944;BME280;42848;42.524;12.052;2022-08-11T09:11:22;96736.91;;;24.90;75.31
56944;BME280;42848;42.524;12.052;2022-08-11T09:14:07;96730.75;;;25.09;74.33
56944;BME280;42848;42.524;12.052;2022-08-11T09:16:34;96731.06;;;25.18;74.06
56944;BME280;42848;42.524;12.052;2022-08-11T09:19:00;96742.59;;;25.13;73.52
56944;BME280;42848;42.524;12.052;2022-08-11T09:21:26;96743.38;;;25.17;73.29
56944;BME280;42848;42.524;12.052;2022-08-11T09:23:53;96745.50;;;25.06;73.34
56944;BME280;42848;42.524;12.052;2022-08-11T09:26:39;96737.03;;;25.17;73.28
56944;BME280;42848;42.524;12.052;2022-08-11T09:29:28;96742.22;;;25.15;72.72
56944;BME280;42848;42.524;12.052;2022-08-11T09:31:57;96742.31;;;25.04;72.54
56944;BME280;42848;42.524;12.052;2022-08-11T09:34:24;96740.75;;;25.03;72.42
56944;BME280;42848;42.524;12.052;2022-08-11T09:36:51;96747.25;;;25.23;71.78
56944;BME280;42848;42.524;12.052;2022-08-11T09:39:37;96740.31;;;25.39;71.50
56944;BME280;42848;42.524;12.052;2022-08-11T09:42:24;96746.84;;;25.56;70.83
56944;BME280;42848;42.524;12.052;2022-08-11T09:45:12;96741.38;;;25.48;70.13
56944;BME280;42848;42.524;12.052;2022-08-11T09:47:38;96739.75;;;25.51;69.16
56944;BME280;42848;42.524;12.052;2022-08-11T09:50:05;96747.78;;;25.76;69.45
56944;BME280;42848;42.524;12.052;2022-08-11T09:52:38;96737.97;;;25.95;72.07
56944;BME280;42848;42.524;12.052;2022-08-11T09:55:05;96745.22;;;25.89;68.84
56944;BME280;42848;42.524;12.052;2022-08-11T09:57:38;96739.22;;;25.60;67.70
56944;BME280;42848;42.524;12.052;2022-08-11T10:00:35;96745.78;;;25.76;68.23
56944;BME280;42848;42.524;12.052;2022-08-11T10:03:24;96733.50;;;25.74;67.80
56944;BME280;42848;42.524;12.052;2022-08-11T10:05:55;96737.69;;;25.86;69.42
56944;BME280;42848;42.524;12.052;2022-08-11T10:08:41;96733.25;;;25.92;69.57
56944;BME280;42848;42.524;12.052;2022-08-11T10:11:11;96729.34;;;25.86;68.28
56944;BME280;42848;42.524;12.052;2022-08-11T10:13:42;96745.31;;;25.82;67.41
56944;BME280;42848;42.524;12.052;2022-08-11T10:16:29;96736.03;;;25.92;69.34
56944;BME280;42848;42.524;12.052;2022-08-11T10:19:00;96731.00;;;25.83;67.01
56944;BME280;42848;42.524;12.052;2022-08-11T10:21:39;96728.81;;;25.67;65.04
56944;BME280;42848;42.524;12.052;2022-08-11T10:24:07;96735.03;;;25.78;65.27
56944;BME280;42848;42.524;12.052;2022-08-11T10:26:54;96733.88;;;26.03;67.27
56944;BME280;42848;42.524;12.052;2022-08-11T10:29:36;96731.88;;;26.03;66.39
56944;BME280;42848;42.524;12.052;2022-08-11T10:32:26;96717.91;;;26.07;65.57
56944;BME280;42848;42.524;12.052;2022-08-11T10:35:11;96707.44;;;26.15;64.71
56944;BME280;42848;42.524;12.052;2022-08-11T10:37:40;96708.13;;;26.22;64.02
56944;BME280;42848;42.524;12.052;2022-08-11T10:40:08;96708.25;;;26.15;62.61
56944;BME280;42848;42.524;12.052;2022-08-11T10:42:36;96703.41;;;26.19;62.40
56944;BME280;42848;42.524;12.052;2022-08-11T10:45:22;96710.91;;;26.22;60.70
56944;BME280;42848;42.524;12.052;2022-08-11T10:48:07;96700.06;;;26.28;61.24
56944;BME280;42848;42.524;12.052;2022-08-11T10:50:35;96701.84;;;26.18;60.38
56944;BME280;42848;42.524;12.052;2022-08-11T10:53:20;96698.56;;;26.23;60.63
56944;BME280;42848;42.524;12.052;2022-08-11T10:56:06;96701.38;;;26.47;62.38
56944;BME280;42848;42.524;12.052;2022-08-11T10:58:52;96694.22;;;26.46;60.72
56944;BME280;42848;42.524;12.052;2022-08-11T11:01:32;96686.69;;;26.66;62.16
56944;BME280;42848;42.524;12.052;2022-08-11T11:04:04;96685.81;;;26.69;62.04
56944;BME280;42848;42.524;12.052;2022-08-11T11:09:38;96685.00;;;26.92;59.77
56944;BME280;42848;42.524;12.052;2022-08-11T11:14:50;96694.84;;;26.97;57.82
56944;BME280;42848;42.524;12.052;2022-08-11T11:17:42;96681.28;;;26.99;57.57
56944;BME280;42848;42.524;12.052;2022-08-11T11:20:25;96675.63;;;27.02;56.46
56944;BME280;42848;42.524;12.052;2022-08-11T11:22:54;96666.78;;;27.27;60.15
56944;BME280;42848;42.524;12.052;2022-08-11T11:25:50;96664.88;;;27.40;57.53
56944;BME280;42848;42.524;12.052;2022-08-11T11:34:21;96672.41;;;27.43;52.66
56944;BME280;42848;42.524;12.052;2022-08-11T11:36:54;96673.00;;;27.51;53.72
56944;BME280;42848;42.524;12.052;2022-08-11T11:39:23;96674.16;;;27.54;51.77
56944;BME280;42848;42.524;12.052;2022-08-11T11:41:52;96670.78;;;27.62;52.17
56944;BME280;42848;42.524;12.052;2022-08-11T11:44:20;96665.50;;;27.68;52.43
56944;BME280;42848;42.524;12.052;2022-08-11T11:46:50;96659.06;;;27.71;52.54
56944;BME280;42848;42.524;12.052;2022-08-11T11:49:18;96663.59;;;27.81;51.80
56944;BME280;42848;42.524;12.052;2022-08-11T11:51:46;96649.81;;;27.90;53.07
56944;BME280;42848;42.524;12.052;2022-08-11T11:54:17;96666.56;;;27.74;48.06
56944;BME280;42848;42.524;12.052;2022-08-11T11:56:45;96664.66;;;27.71;50.41
56944;BME280;42848;42.524;12.052;2022-08-11T11:59:11;96667.13;;;27.65;51.51
56944;BME280;42848;42.524;12.052;2022-08-11T12:01:57;96659.69;;;27.59;53.84
56944;BME280;42848;42.524;12.052;2022-08-11T12:04:25;96655.69;;;27.60;55.17
56944;BME280;42848;42.524;12.052;2022-08-11T12:06:53;96657.22;;;27.28;52.14
56944;BME280;42848;42.524;12.052;2022-08-11T12:09:39;96656.19;;;27.38;53.71
56944;BME280;42848;42.524;12.052;2022-08-11T12:12:06;96646.94;;;27.41;52.54
56944;BME280;42848;42.524;12.052;2022-08-11T12:14:52;96645.69;;;27.62;52.75
56944;BME280;42848;42.524;12.052;2022-08-11T12:17:18;96645.41;;;27.57;50.58
56944;BME280;42848;42.524;12.052;2022-08-11T12:19:45;96648.81;;;27.64;50.61
56944;BME280;42848;42.524;12.052;2022-08-11T12:22:12;96642.16;;;27.42;50.44
56944;BME280;42848;42.524;12.052;2022-08-11T12:25:00;96645.19;;;27.31;49.82
56944;BME280;42848;42.524;12.052;2022-08-11T12:27:45;96636.97;;;27.24;47.41
56944;BME280;42848;42.524;12.052;2022-08-11T12:30:12;96622.59;;;27.62;48.60
56944;BME280;42848;42.524;12.052;2022-08-11T12:32:39;96637.28;;;27.82;47.66
56944;BME280;42848;42.524;12.052;2022-08-11T12:35:06;96629.59;;;28.02;47.81
56944;BME280;42848;42.524;12.052;2022-08-11T12:37:44;96626.22;;;28.24;48.90
56944;BME280;42848;42.524;12.052;2022-08-11T12:40:14;96611.50;;;28.23;48.50
56944;BME280;42848;42.524;12.052;2022-08-11T12:43:02;96624.06;;;28.31;46.70
56944;BME280;42848;42.524;12.052;2022-08-11T12:45:48;96620.34;;;27.89;44.88
56944;BME280;42848;42.524;12.052;2022-08-11T12:48:21;96604.63;;;28.12;44.48
56944;BME280;42848;42.524;12.052;2022-08-11T12:51:11;96603.41;;;28.13;46.20
56944;BME280;42848;42.524;12.052;2022-08-11T12:56:41;96601.97;;;28.53;47.20
56944;BME280;42848;42.524;12.052;2022-08-11T12:59:44;96594.88;;;28.49;49.83
56944;BME280;42848;42.524;12.052;2022-08-11T13:02:29;96589.66;;;27.73;48.60
56944;BME280;42848;42.524;12.052;2022-08-11T13:05:14;96592.69;;;27.78;49.16
56944;BME280;42848;42.524;12.052;2022-08-11T13:07:43;96576.81;;;28.08;44.73
56944;BME280;42848;42.524;12.052;2022-08-11T13:10:12;96588.22;;;28.30;46.36
56944;BME280;42848;42.524;12.052;2022-08-11T13:12:41;96591.34;;;28.32;47.47
56944;BME280;42848;42.524;12.052;2022-08-11T13:15:23;96586.81;;;28.38;46.47
56944;BME280;42848;42.524;12.052;2022-08-11T13:17:51;96584.53;;;28.33;45.59
56944;BME280;42848;42.524;12.052;2022-08-11T13:20:22;96594.88;;;28.49;46.21
56944;BME280;42848;42.524;12.052;2022-08-11T13:22:52;96579.47;;;28.28;44.78
56944;BME280;42848;42.524;12.052;2022-08-11T13:25:21;96582.75;;;28.55;46.46
56944;BME280;42848;42.524;12.052;2022-08-11T13:27:50;96575.44;;;28.45;44.52
56944;BME280;42848;42.524;12.052;2022-08-11T13:30:17;96577.34;;;28.48;43.67
56944;BME280;42848;42.524;12.052;2022-08-11T13:33:03;96571.50;;;28.43;43.85
56944;BME280;42848;42.524;12.052;2022-08-11T13:35:32;96566.56;;;28.63;44.47
56944;BME280;42848;42.524;12.052;2022-08-11T13:38:01;96577.06;;;28.30;45.52
56944;BME280;42848;42.524;12.052;2022-08-11T13:40:30;96566.69;;;28.43;43.62
56944;BME280;42848;42.524;12.052;2022-08-11T13:42:57;96571.47;;;28.59;42.80
56944;BME280;42848;42.524;12.052;2022-08-11T13:45:25;96569.94;;;28.42;42.70
56944;BME280;42848;42.524;12.052;2022-08-11T13:47:56;96561.25;;;28.23;42.38
56944;BME280;42848;42.524;12.052;2022-08-11T13:50:26;96570.53;;;28.49;42.11
56944;BME280;42848;42.524;12.052;2022-08-11T13:53:14;96577.16;;;28.55;41.28
56944;BME280;42848;42.524;12.052;2022-08-11T13:55:42;96570.19;;;28.47;42.67
56944;BME280;42848;42.524;12.052;2022-08-11T13:58:09;96571.47;;;28.59;42.82
56944;BME280;42848;42.524;12.052;2022-08-11T14:00:36;96580.78;;;28.40;41.53
56944;BME280;42848;42.524;12.052;2022-08-11T14:03:05;96573.88;;;28.86;42.67
56944;BME280;42848;42.524;12.052;2022-08-11T14:05:38;96559.28;;;28.95;41.91
56944;BME280;42848;42.524;12.052;2022-08-11T14:08:11;96563.19;;;29.23;42.63
56944;BME280;42848;42.524;12.052;2022-08-11T14:10:39;96575.28;;;29.45;41.76
56944;BME280;42848;42.524;12.052;2022-08-11T14:13:09;96572.81;;;29.47;41.55
56944;BME280;42848;42.524;12.052;2022-08-11T14:16:06;96572.94;;;29.69;40.43
56944;BME280;42848;42.524;12.052;2022-08-11T14:18:33;96560.38;;;28.97;36.84
56944;BME280;42848;42.524;12.052;2022-08-11T14:21:02;96563.88;;;29.27;38.02
56944;BME280;42848;42.524;12.052;2022-08-11T14:23:51;96553.78;;;29.42;37.24
56944;BME280;42848;42.524;12.052;2022-08-11T14:26:24;96557.19;;;29.37;35.86
56944;BME280;42848;42.524;12.052;2022-08-11T14:29:22;96543.75;;;29.32;35.18
56944;BME280;42848;42.524;12.052;2022-08-11T14:31:53;96540.50;;;29.46;36.10
56944;BME280;42848;42.524;12.052;2022-08-11T14:34:22;96552.81;;;29.49;35.13
56944;BME280;42848;42.524;12.052;2022-08-11T14:36:52;96552.00;;;29.61;36.80
56944;BME280;42848;42.524;12.052;2022-08-11T14:39:21;96543.94;;;29.76;36.24
56944;BME280;42848;42.524;12.052;2022-08-11T14:41:51;96541.84;;;29.67;35.38
56944;BME280;42848;42.524;12.052;2022-08-11T14:44:42;96544.66;;;29.29;35.03
56944;BME280;42848;42.524;12.052;2022-08-11T14:47:31;96550.13;;;29.32;34.35
56944;BME280;42848;42.524;12.052;2022-08-11T14:49:58;96541.38;;;29.81;36.61
56944;BME280;42848;42.524;12.052;2022-08-11T14:52:27;96537.84;;;29.55;34.44
56944;BME280;42848;42.524;12.052;2022-08-11T14:54:54;96546.66;;;29.66;35.81
56944;BME280;42848;42.524;12.052;2022-08-11T14:57:40;96539.63;;;29.49;35.65
56944;BME280;42848;42.524;12.052;2022-08-11T15:00:09;96533.91;;;29.40;36.08
56944;BME280;42848;42.524;12.052;2022-08-11T15:02:41;96525.09;;;29.54;36.06
56944;BME280;42848;42.524;12.052;2022-08-11T15:05:26;96529.50;;;29.77;36.72
56944;BME280;42848;42.524;12.052;2022-08-11T15:07:53;96534.56;;;29.44;34.63
56944;BME280;42848;42.524;12.052;2022-08-11T15:10:20;96533.78;;;29.05;35.26
56944;BME280;42848;42.524;12.052;2022-08-11T15:12:47;96522.28;;;29.29;35.12
56944;BME280;42848;42.524;12.052;2022-08-11T15:15:15;96530.09;;;29.34;35.54
56944;BME280;42848;42.524;12.052;2022-08-11T15:18:05;96520.66;;;28.77;35.56
56944;BME280;42848;42.524;12.052;2022-08-11T15:20:32;96525.31;;;28.54;36.26
56944;BME280;42848;42.524;12.052;2022-08-11T15:23:17;96511.19;;;29.38;36.34
56944;BME280;42848;42.524;12.052;2022-08-11T15:26:12;96513.47;;;29.17;37.13
56944;BME280;42848;42.524;12.052;2022-08-11T15:28:45;96498.56;;;29.21;37.18
56944;BME280;42848;42.524;12.052;2022-08-11T15:31:30;96497.88;;;29.42;38.17
56944;BME280;42848;42.524;12.052;2022-08-11T15:34:01;96505.28;;;29.36;38.41
56944;BME280;42848;42.524;12.052;2022-08-11T15:36:47;96515.34;;;28.95;36.33
56944;BME280;42848;42.524;12.052;2022-08-11T15:39:35;96511.75;;;29.07;37.16
56944;BME280;42848;42.524;12.052;2022-08-11T15:42:22;96509.28;;;28.97;36.89
56944;BME280;42848;42.524;12.052;2022-08-11T15:45:08;96498.47;;;29.11;37.11
56944;BME280;42848;42.524;12.052;2022-08-11T15:48:00;96510.56;;;29.08;36.48
56944;BME280;42848;42.524;12.052;2022-08-11T15:50:29;96498.91;;;29.35;37.51
56944;BME280;42848;42.524;12.052;2022-08-11T15:53:02;96494.09;;;29.36;36.88
56944;BME280;42848;42.524;12.052;2022-08-11T15:55:33;96488.59;;;29.58;36.49
56944;BME280;42848;42.524;12.052;2022-08-11T15:58:02;96482.22;;;29.32;37.46
56944;BME280;42848;42.524;12.052;2022-08-11T16:00:47;96485.25;;;29.25;37.99
56944;BME280;42848;42.524;12.052;2022-08-11T16:03:40;96491.63;;;29.12;38.80
56944;BME280;42848;42.524;12.052;2022-08-11T16:06:26;96491.50;;;29.16;38.71
56944;BME280;42848;42.524;12.052;2022-08-11T16:08:54;96476.84;;;29.25;38.16
56944;BME280;42848;42.524;12.052;2022-08-11T16:11:25;96484.94;;;28.97;38.72
56944;BME280;42848;42.524;12.052;2022-08-11T16:13:52;96485.44;;;28.79;38.96
56944;BME280;42848;42.524;12.052;2022-08-11T16:16:37;96483.56;;;28.76;38.71
56944;BME280;42848;42.524;12.052;2022-08-11T16:19:06;96482.19;;;28.55;39.06
56944;BME280;42848;42.524;12.052;2022-08-11T16:21:36;96487.56;;;28.63;39.48
56944;BME280;42848;42.524;12.052;2022-08-11T16:24:12;96481.03;;;28.40;38.88
56944;BME280;42848;42.524;12.052;2022-08-11T16:26:41;96488.50;;;28.30;39.45
56944;BME280;42848;42.524;12.052;2022-08-11T16:29:09;96485.66;;;28.18;39.47